createdAt,value
2022-12-12T00:01:38.358Z,28.27
2022-12-12T00:04:06.299Z,27.95
2022-12-12T00:06:35.485Z,27.98
2022-12-12T00:09:05.283Z,26.75
2022-12-12T00:11:34.670Z,26.95
2022-12-12T00:14:01.572Z,30.92
2022-12-12T00:16:29.052Z,27.50
2022-12-12T00:18:56.049Z,28.92
2022-12-12T00:21:25.579Z,32.22
2022-12-12T00:23:56.184Z,30.50
2022-12-12T00:26:33.376Z,35.05
2022-12-12T00:29:04.053Z,32.03
2022-12-12T00:31:31.155Z,39.28
2022-12-12T00:34:00.800Z,37.90
2022-12-12T00:36:29.585Z,34.38
2022-12-12T00:38:57.149Z,33.72
2022-12-12T00:41:28.654Z,37.40
2022-12-12T00:43:55.664Z,35.95
2022-12-12T00:46:26.436Z,32.67
2022-12-12T00:48:58.143Z,36.70
2022-12-12T00:51:26.922Z,36.25
2022-12-12T00:53:59.004Z,36.65
2022-12-12T00:56:29.489Z,33.42
2022-12-12T00:58:58.731Z,37.58
2022-12-12T01:01:30.922Z,37.33
2022-12-12T01:04:01.164Z,33.25
2022-12-12T01:06:31.950Z,37.50
2022-12-12T01:09:01.093Z,32.13
2022-12-12T01:11:30.806Z,31.38
2022-12-12T01:14:03.087Z,31.20
2022-12-12T01:16:31.289Z,32.17
2022-12-12T01:18:59.383Z,34.35
2022-12-12T01:21:26.935Z,33.75
2022-12-12T01:23:54.005Z,36.42
2022-12-12T01:26:23.674Z,35.88
2022-12-12T01:28:51.706Z,36.83
2022-12-12T01:31:18.890Z,35.90
2022-12-12T01:36:21.214Z,39.80
2022-12-12T01:38:52.942Z,38.00
2022-12-12T01:41:21.352Z,41.50
2022-12-12T01:43:48.382Z,39.63
2022-12-12T01:46:42.767Z,41.25
2022-12-12T01:49:18.082Z,44.00
2022-12-12T01:51:48.081Z,40.13
2022-12-12T01:54:20.132Z,37.08
2022-12-12T01:56:49.791Z,41.22
2022-12-12T01:59:20.970Z,46.47
2022-12-12T02:01:51.280Z,45.35
2022-12-12T02:04:18.929Z,44.30
2022-12-12T02:06:52.970Z,48.22
2022-12-12T02:09:21.298Z,44.13
2022-12-12T02:11:51.474Z,48.15
2022-12-12T02:14:22.477Z,44.00
2022-12-12T02:17:11.646Z,43.83
2022-12-12T02:19:57.189Z,41.85
2022-12-12T02:23:02.469Z,42.70
2022-12-12T02:26:01.682Z,43.63
2022-12-12T02:28:42.251Z,39.67
2022-12-12T02:31:39.700Z,50.97
2022-12-12T02:34:34.743Z,40.85
2022-12-12T02:37:23.288Z,48.65
2022-12-12T02:40:07.267Z,41.65
2022-12-12T02:42:45.138Z,46.38
2022-12-12T02:45:12.259Z,44.30
2022-12-12T02:50:22.305Z,49.42
2022-12-12T02:52:49.664Z,46.45
2022-12-12T02:55:20.183Z,45.85
2022-12-12T02:57:49.045Z,48.55
2022-12-12T03:00:23.026Z,40.85
2022-12-12T03:03:18.652Z,36.20
2022-12-12T03:06:27.767Z,29.80
2022-12-12T03:09:16.219Z,25.58
2022-12-12T03:11:58.482Z,27.08
2022-12-12T03:14:29.072Z,21.92
2022-12-12T03:17:11.456Z,25.48
2022-12-12T03:19:47.116Z,29.70
2022-12-12T03:22:32.676Z,24.85
2022-12-12T03:25:05.427Z,26.23
2022-12-12T03:27:56.429Z,32.35
2022-12-12T03:30:23.517Z,31.60
2022-12-12T03:33:26.031Z,33.88
2022-12-12T03:36:02.485Z,29.63
2022-12-12T03:38:34.505Z,31.90
2022-12-12T03:41:08.167Z,33.88
2022-12-12T03:43:45.120Z,31.92
2022-12-12T03:46:12.154Z,31.25
2022-12-12T03:49:14.554Z,35.38
2022-12-12T03:51:51.132Z,34.25
2022-12-12T03:54:22.218Z,32.17
2022-12-12T03:56:53.537Z,33.83
2022-12-12T03:59:28.213Z,35.42
2022-12-12T04:02:22.055Z,37.45
2022-12-12T04:05:02.346Z,34.13
2022-12-12T04:07:32.290Z,36.22
2022-12-12T04:10:20.278Z,34.80
2022-12-12T04:13:36.858Z,32.78
2022-12-12T04:16:18.777Z,33.35
2022-12-12T04:19:00.724Z,35.03
2022-12-12T04:22:15.394Z,36.60
2022-12-12T04:25:00.907Z,37.97
2022-12-12T04:27:33.922Z,33.72
2022-12-12T04:30:09.668Z,31.15
2022-12-12T04:32:42.657Z,29.67
2022-12-12T04:35:17.720Z,29.30
2022-12-12T04:37:58.026Z,30.73
2022-12-12T04:40:32.688Z,31.17
2022-12-12T04:43:04.831Z,38.05
2022-12-12T04:45:38.492Z,37.47
2022-12-12T04:48:08.656Z,43.97
2022-12-12T04:50:37.319Z,35.88
2022-12-12T04:53:18.053Z,37.13
2022-12-12T04:55:50.864Z,35.22
2022-12-12T04:58:20.513Z,40.47
2022-12-12T05:00:56.946Z,33.78
2022-12-12T05:03:40.952Z,35.17
2022-12-12T05:06:13.366Z,35.47
2022-12-12T05:08:45.981Z,32.70
2022-12-12T05:11:14.068Z,35.63
2022-12-12T05:13:43.102Z,30.45
2022-12-12T05:16:32.573Z,33.63
2022-12-12T05:19:02.383Z,30.25
2022-12-12T05:21:29.325Z,29.65
2022-12-12T05:23:58.394Z,25.17
2022-12-12T05:26:26.801Z,26.13
2022-12-12T05:28:54.201Z,23.25
2022-12-12T05:31:21.395Z,24.55
2022-12-12T05:33:50.471Z,23.90
2022-12-12T05:36:17.799Z,26.67
2022-12-12T05:38:47.491Z,28.13
2022-12-12T05:41:15.414Z,23.77
2022-12-12T05:43:42.370Z,25.90
2022-12-12T05:46:09.466Z,27.33
2022-12-12T05:53:39.104Z,27.25
2022-12-12T05:56:11.473Z,26.67
2022-12-12T05:58:42.652Z,26.88
2022-12-12T06:01:12.449Z,25.48
2022-12-12T06:03:39.438Z,25.15
2022-12-12T06:06:08.670Z,24.20
2022-12-12T06:08:35.650Z,24.85
2022-12-12T06:11:06.641Z,22.67
2022-12-12T06:13:34.394Z,22.20
2022-12-12T06:16:14.587Z,20.70
2022-12-12T06:18:43.940Z,19.55
2022-12-12T06:21:13.148Z,19.85
2022-12-12T06:23:43.456Z,20.88
2022-12-12T06:26:13.129Z,25.38
2022-12-12T06:28:41.780Z,22.45
2022-12-12T06:31:12.550Z,22.83
2022-12-12T06:33:41.352Z,20.73
2022-12-12T06:36:13.998Z,20.38
2022-12-12T06:38:43.695Z,20.85
2022-12-12T06:41:13.201Z,20.70
2022-12-12T06:43:43.248Z,23.48
2022-12-12T06:46:14.714Z,20.70
2022-12-12T06:48:41.693Z,25.92
2022-12-12T06:51:15.627Z,20.77
2022-12-12T06:53:50.931Z,24.33
2022-12-12T06:56:20.808Z,28.80
2022-12-12T06:58:50.864Z,21.92
2022-12-12T07:01:20.271Z,22.48
2022-12-12T07:03:53.377Z,22.90
2022-12-12T07:06:26.517Z,28.10
2022-12-12T07:08:53.814Z,23.15
2022-12-12T07:13:50.792Z,24.52
2022-12-12T07:16:18.602Z,27.45
2022-12-12T07:18:46.211Z,26.80
2022-12-12T07:21:15.635Z,25.63
2022-12-12T07:23:42.979Z,26.25
2022-12-12T07:26:18.393Z,24.83
2022-12-12T07:28:45.651Z,21.88
2022-12-12T07:33:44.793Z,23.13
2022-12-12T07:36:16.615Z,23.60
2022-12-12T07:38:44.214Z,25.13
2022-12-12T07:41:15.179Z,27.42
2022-12-12T07:43:45.090Z,23.60
2022-12-12T07:46:16.697Z,24.85
2022-12-12T07:48:44.808Z,28.27
2022-12-12T07:51:12.372Z,29.08
2022-12-12T07:53:42.103Z,28.77
2022-12-12T07:56:13.838Z,29.40
2022-12-12T07:58:44.618Z,28.52
2022-12-12T08:01:16.224Z,26.73
2022-12-12T08:03:45.334Z,30.00
2022-12-12T08:06:13.313Z,27.67
2022-12-12T08:08:40.305Z,30.40
2022-12-12T08:11:10.547Z,27.25
2022-12-12T08:13:39.574Z,27.08
2022-12-12T08:16:12.734Z,29.42
2022-12-12T08:18:39.768Z,27.38
2022-12-12T08:21:10.850Z,30.02
2022-12-12T08:23:39.252Z,27.40
2022-12-12T08:26:08.612Z,29.65
2022-12-12T08:28:36.047Z,28.58
2022-12-12T08:31:03.343Z,23.42
2022-12-12T08:36:00.076Z,26.23
2022-12-12T08:40:53.984Z,27.10
2022-12-12T08:43:20.915Z,24.27
2022-12-12T08:45:48.133Z,25.77
2022-12-12T08:50:44.692Z,28.83
2022-12-12T08:53:14.223Z,27.80
2022-12-12T08:55:41.472Z,31.05
2022-12-12T09:00:35.557Z,29.73
2022-12-12T09:03:07.980Z,27.13
2022-12-12T09:05:35.114Z,35.40
2022-12-12T09:08:02.201Z,30.98
2022-12-12T09:12:55.993Z,31.90
2022-12-12T09:15:22.980Z,28.45
2022-12-12T09:17:50.214Z,31.70
2022-12-12T09:20:17.348Z,31.20
2022-12-12T09:22:46.353Z,38.22
2022-12-12T09:25:13.708Z,32.55
2022-12-12T09:27:42.661Z,33.40
2022-12-12T09:30:10.178Z,34.70
2022-12-12T09:32:37.197Z,32.28
2022-12-12T09:35:04.623Z,34.95
2022-12-12T09:37:31.629Z,33.70
2022-12-12T09:39:58.587Z,34.28
2022-12-12T09:42:30.493Z,33.03
2022-12-12T09:45:05.334Z,36.65
2022-12-12T09:47:49.193Z,36.22
2022-12-12T09:50:29.508Z,32.35
2022-12-12T09:53:04.186Z,32.13
2022-12-12T09:55:49.253Z,32.78
2022-12-12T09:58:42.162Z,34.75
2022-12-12T10:01:31.984Z,32.88
2022-12-12T10:04:13.579Z,28.05
2022-12-12T10:07:02.996Z,31.67
2022-12-12T10:10:13.336Z,30.45
2022-12-12T10:12:41.155Z,27.65
2022-12-12T10:15:23.072Z,32.15
2022-12-12T10:17:53.153Z,32.85
2022-12-12T10:20:25.985Z,29.85
2022-12-12T10:23:03.361Z,35.20
2022-12-12T10:26:04.206Z,28.58
2022-12-12T10:28:34.267Z,27.95
2022-12-12T10:31:35.648Z,34.63
2022-12-12T10:34:14.750Z,44.50
2022-12-12T10:36:47.765Z,31.17
2022-12-12T10:39:32.087Z,31.40
2022-12-12T10:42:01.794Z,33.80
2022-12-12T10:44:28.751Z,28.40
2022-12-12T10:47:10.859Z,28.25
2022-12-12T10:49:38.104Z,32.47
2022-12-12T10:52:18.690Z,27.88
2022-12-12T10:54:57.633Z,30.00
2022-12-12T10:57:26.545Z,32.70
2022-12-12T10:59:56.595Z,33.33
2022-12-12T11:02:40.744Z,27.95
2022-12-12T11:05:10.860Z,24.42
2022-12-12T11:07:45.950Z,29.13
2022-12-12T11:10:26.756Z,28.77
2022-12-12T11:12:59.069Z,23.25
2022-12-12T11:15:31.764Z,32.60
2022-12-12T11:18:05.758Z,24.33
2022-12-12T11:20:33.355Z,25.23
2022-12-12T11:23:00.743Z,18.52
2022-12-12T11:25:32.499Z,31.27
2022-12-12T11:28:07.020Z,33.38
2022-12-12T11:30:42.048Z,22.30
2022-12-12T11:33:20.081Z,20.75
2022-12-12T11:35:52.930Z,22.75
2022-12-12T11:38:28.408Z,22.13
2022-12-12T11:41:05.657Z,27.73
2022-12-12T11:43:52.112Z,22.88
2022-12-12T11:46:25.066Z,28.70
2022-12-12T11:48:54.195Z,23.77
2022-12-12T11:51:35.569Z,22.90
2022-12-12T11:54:20.908Z,22.83
2022-12-12T11:56:54.375Z,25.00
2022-12-12T11:59:34.033Z,24.60
2022-12-12T12:02:07.917Z,20.45
2022-12-12T12:04:53.797Z,20.85
2022-12-12T12:07:42.612Z,23.10
2022-12-12T12:10:12.693Z,27.75
2022-12-12T12:12:52.092Z,34.42
2022-12-12T12:15:25.230Z,28.30
2022-12-12T12:18:33.720Z,25.10
2022-12-12T12:21:00.740Z,21.98
2022-12-12T12:23:45.147Z,24.92
2022-12-12T12:26:25.906Z,27.17
2022-12-12T12:29:29.937Z,23.20
2022-12-12T12:32:12.698Z,22.15
2022-12-12T12:34:55.320Z,23.30
2022-12-12T12:37:33.629Z,30.35
2022-12-12T12:40:07.054Z,23.85
2022-12-12T12:42:43.597Z,23.60
2022-12-12T12:45:45.665Z,21.55
2022-12-12T12:48:24.961Z,20.13
2022-12-12T12:53:51.540Z,23.60
2022-12-12T12:56:31.345Z,23.25
2022-12-12T12:59:02.952Z,29.17
2022-12-12T13:01:39.696Z,25.23
2022-12-12T13:04:27.187Z,21.67
2022-12-12T13:07:03.270Z,22.05
2022-12-12T13:09:54.649Z,20.40
2022-12-12T13:12:30.811Z,25.88
2022-12-12T13:15:12.884Z,28.73
2022-12-12T13:18:13.943Z,27.63
2022-12-12T13:21:08.000Z,23.27
2022-12-12T13:23:56.955Z,30.77
2022-12-12T13:26:34.325Z,23.83
2022-12-12T13:29:23.810Z,19.08
2022-12-12T13:32:18.990Z,18.25
2022-12-12T13:34:50.824Z,20.88
2022-12-12T13:37:20.959Z,15.82
2022-12-12T13:40:00.516Z,24.13
2022-12-12T13:42:54.066Z,20.80
2022-12-12T13:45:36.136Z,18.85
2022-12-12T13:48:09.483Z,20.40
2022-12-12T13:50:36.511Z,18.38
2022-12-12T13:53:11.370Z,17.13
2022-12-12T13:55:41.100Z,25.05
2022-12-12T13:58:17.378Z,23.48
2022-12-12T14:01:10.414Z,23.83
2022-12-12T14:03:37.825Z,18.77
2022-12-12T14:06:10.841Z,20.05
2022-12-12T14:08:47.021Z,20.63
2022-12-12T14:11:26.355Z,22.63
2022-12-12T14:14:05.349Z,20.85
2022-12-12T14:16:38.493Z,18.35
2022-12-12T14:19:38.743Z,21.35
2022-12-12T14:22:37.573Z,17.20
2022-12-12T14:25:19.464Z,18.35
2022-12-12T14:27:49.436Z,25.35
2022-12-12T14:30:23.520Z,22.60
2022-12-12T14:33:14.517Z,22.55
2022-12-12T14:35:55.664Z,24.23
2022-12-12T14:38:42.582Z,30.80
2022-12-12T14:41:18.192Z,22.98
2022-12-12T14:44:36.351Z,22.25
2022-12-12T14:46:44.487Z,24.48
2022-12-12T14:49:16.518Z,22.02
2022-12-12T14:51:48.014Z,20.67
2022-12-12T14:54:21.623Z,25.20
2022-12-12T14:56:54.633Z,23.40
2022-12-12T14:59:23.432Z,23.83
2022-12-12T15:01:53.527Z,27.75
2022-12-12T15:04:29.936Z,22.85
2022-12-12T15:07:01.747Z,26.55
2022-12-12T15:09:31.874Z,23.35
2022-12-12T15:12:10.795Z,27.40
2022-12-12T15:14:40.059Z,25.95
2022-12-12T15:17:06.931Z,19.55
2022-12-12T15:19:41.286Z,21.10
2022-12-12T15:22:28.117Z,22.38
2022-12-12T15:27:41.960Z,25.70
2022-12-12T15:30:32.040Z,22.75
2022-12-12T15:33:03.555Z,20.85
2022-12-12T15:35:33.050Z,18.80
2022-12-12T15:38:10.573Z,24.27
2022-12-12T15:40:39.623Z,23.13
2022-12-12T15:43:20.337Z,23.73
2022-12-12T15:46:13.904Z,22.13
2022-12-12T15:48:45.818Z,25.67
2022-12-12T15:51:24.395Z,26.38
2022-12-12T15:53:53.584Z,19.73
2022-12-12T15:56:20.772Z,26.27
2022-12-12T15:58:49.563Z,26.17
2022-12-12T16:01:24.513Z,24.38
2022-12-12T16:04:06.837Z,20.55
2022-12-12T16:07:13.837Z,23.05
2022-12-12T16:09:57.817Z,25.38
2022-12-12T16:12:55.057Z,24.00
2022-12-12T16:15:38.141Z,21.70
2022-12-12T16:18:15.774Z,25.83
2022-12-12T16:20:52.776Z,27.92
2022-12-12T16:23:39.604Z,30.80
2022-12-12T16:26:09.322Z,32.85
2022-12-12T16:28:36.445Z,26.63
2022-12-12T16:31:11.568Z,29.20
2022-12-12T16:33:43.060Z,36.70
2022-12-12T16:36:13.219Z,26.98
2022-12-12T16:38:45.301Z,21.45
2022-12-12T16:41:21.084Z,26.67
2022-12-12T16:43:48.062Z,24.65
2022-12-12T16:46:20.072Z,26.05
2022-12-12T16:48:47.307Z,29.35
2022-12-12T16:51:20.667Z,29.13
2022-12-12T16:53:49.916Z,23.08
2022-12-12T16:56:16.913Z,24.92
2022-12-12T16:58:44.009Z,22.75
2022-12-12T17:01:11.161Z,22.92
2022-12-12T17:03:38.922Z,25.52
2022-12-12T17:06:06.301Z,22.48
2022-12-12T17:08:33.290Z,31.80
2022-12-12T17:11:10.477Z,22.08
2022-12-12T17:13:43.087Z,26.90
2022-12-12T17:16:10.210Z,25.63
2022-12-12T17:18:37.411Z,27.75
2022-12-12T17:21:04.525Z,27.52
2022-12-12T17:28:33.115Z,24.92
2022-12-12T17:31:06.919Z,25.10
2022-12-12T17:33:33.978Z,22.83
2022-12-12T17:36:04.202Z,23.00
2022-12-12T17:38:31.709Z,23.02
2022-12-12T17:41:03.457Z,26.75
2022-12-12T17:43:42.376Z,33.35
2022-12-12T17:46:16.801Z,28.38
2022-12-12T17:48:53.401Z,25.23
2022-12-12T17:51:23.805Z,28.27
2022-12-12T17:53:52.659Z,27.45
2022-12-12T17:56:25.181Z,31.70
2022-12-12T17:58:54.998Z,37.90
2022-12-12T18:01:25.615Z,28.20
2022-12-12T18:03:55.510Z,26.40
2022-12-12T18:06:26.264Z,24.65
2022-12-12T18:08:54.543Z,39.38
2022-12-12T18:11:26.920Z,26.08
2022-12-12T18:13:57.955Z,31.95
2022-12-12T18:16:27.530Z,34.15
2022-12-12T18:18:56.050Z,34.40
2022-12-12T18:24:15.478Z,30.08
2022-12-12T18:26:54.511Z,29.92
2022-12-12T18:29:23.906Z,28.88
2022-12-12T18:31:51.377Z,30.48
2022-12-12T18:34:18.349Z,26.20
2022-12-12T18:36:45.530Z,24.73
2022-12-12T18:41:41.892Z,22.33
2022-12-12T18:44:14.483Z,33.30
2022-12-12T18:46:43.342Z,35.63
2022-12-12T18:49:13.882Z,41.28
2022-12-12T18:51:41.381Z,37.85
2022-12-12T18:54:14.355Z,32.75
2022-12-12T18:56:45.235Z,34.85
2022-12-12T18:59:12.581Z,27.03
2022-12-12T19:01:39.809Z,27.63
2022-12-12T19:04:13.122Z,29.57
2022-12-12T19:06:42.102Z,33.20
2022-12-12T19:09:15.466Z,35.95
2022-12-12T19:11:43.874Z,37.57
2022-12-12T19:14:14.947Z,35.53
2022-12-12T19:16:45.124Z,37.97
2022-12-12T19:19:13.130Z,33.10
2022-12-12T19:21:43.944Z,33.28
2022-12-12T19:24:13.847Z,35.50
2022-12-12T19:26:43.972Z,34.30
2022-12-12T19:29:14.841Z,26.83
2022-12-12T19:31:41.846Z,36.67
2022-12-12T19:34:13.139Z,34.42
2022-12-12T19:36:41.109Z,44.30
2022-12-12T19:39:12.036Z,44.38
2022-12-12T19:41:41.994Z,33.22
2022-12-12T19:44:13.446Z,30.77
2022-12-12T19:46:47.684Z,42.50
2022-12-12T19:49:16.653Z,28.90
2022-12-12T19:51:45.385Z,34.10
2022-12-12T19:54:19.043Z,39.57
2022-12-12T19:56:51.207Z,40.97
2022-12-12T19:59:19.319Z,43.43
2022-12-12T20:01:46.702Z,49.53
2022-12-12T20:05:18.794Z,36.67
2022-12-12T20:07:45.802Z,47.70
2022-12-12T20:10:13.417Z,34.72
2022-12-12T20:12:54.424Z,32.30
2022-12-12T20:15:21.720Z,25.40
2022-12-12T20:17:48.814Z,28.40
2022-12-12T20:20:17.891Z,34.03
2022-12-12T20:22:48.172Z,33.07
2022-12-12T20:25:15.194Z,34.17
2022-12-12T20:30:09.931Z,34.57
2022-12-12T20:32:36.947Z,36.33
2022-12-12T20:35:08.968Z,42.90
2022-12-12T20:37:38.277Z,44.47
2022-12-12T20:40:10.710Z,36.33
2022-12-12T20:42:40.257Z,37.30
2022-12-12T20:45:09.794Z,37.80
2022-12-12T20:47:38.956Z,42.70
2022-12-12T20:50:06.402Z,37.60
2022-12-12T20:52:37.897Z,41.60
2022-12-12T20:55:05.989Z,42.53
2022-12-12T20:57:33.081Z,45.60
2022-12-12T21:02:30.476Z,28.80
2022-12-12T21:04:57.803Z,27.93
2022-12-12T21:07:27.182Z,26.20
2022-12-12T21:09:54.242Z,25.90
2022-12-12T21:14:50.634Z,29.03
2022-12-12T21:17:20.277Z,30.50
2022-12-12T21:22:16.682Z,28.37
2022-12-12T21:24:43.635Z,27.50
2022-12-12T21:27:14.302Z,26.77
2022-12-12T21:29:41.423Z,25.47
2022-12-12T21:34:35.550Z,24.80
